Архив погоды в Нолинске

Метеограмма Нолинск
Вторник, 19 Июня
Время местн. Темп Ветер Видим Явления Облачность нижн/средн/верх Атм. давл. Влжн Точка росы ВНГО R Сост. почвы Tg s
Напр Скр Прв ур.ст ур.м изм
09:00 +24.6° С-З 1 3 20 км - переменная облачность 746 758 -0.2 43% +11.3° более 2.5 км - - - -
06:00 +15.3° Ю,Ю-З 1 2 20 км - переменная облачность 746 758 +0.1 77% +11.2° - - Сухая (без трещин) - -
03:00 +11.6° Ю-З 1 1 20 км - переменная облачность 746 758 -0.5 81% +8.5° - - - - -
00:00 +13.3° Ю-З 3 4 20 км - ясно 747 759 +0.1 74% +8.8° более 2.5 км - - - -
Понедельник, 18 Июня
Время местн. Темп Ветер Видим Явления Облачность нижн/средн/верх Атм. давл. Влжн Точка росы ВНГО R Сост. почвы Tg s
Напр Скр Прв ур.ст ур.м изм
21:00 +21.3° З 1 7 20 км - незначительная облачность 747 758 -0.2 37% +6.1° более 2.5 км - - - -
18:00 +25.4° С 2 10 20 км - незначительная облачность 747 758 -0.5 25% +4° 1.5 км 0 - - -
15:00 +25.3° С 4 10 20 км - переменная облачность 747 759 -0.5 26% +4.6° 1.5 км - - - -
12:00 +24.6° С 4 9 20 км - переменная облачность 748 759 -0.5 23% +2.3° более 2.5 км - - - -
09:00 +22.3° С,С-В 3 10 20 км - переменная облачность 748 760 -0.7 28% +3° более 2.5 км - - - -
06:00 +13.4° З,Ю-З 2 3 20 км - переменная облачность 749 761 0 68% +7.7° - - Сухая (без трещин) - -
03:00 +9.9° штиль 0 0 20 км - незначительная облачность 749 761 0 78% +6.2° более 2.5 км - - - -
00:00 +14.3° С-В 1 2 20 км - незначительная облачность 749 761 +0.1 56% +5.6° более 2.5 км - - - -
Воскресенье, 17 Июня
Время местн. Темп Ветер Видим Явления Облачность нижн/средн/верх Атм. давл. Влжн Точка росы ВНГО R Сост. почвы Tg s
Напр Скр Прв ур.ст ур.м изм
21:00 +18.8° С 1 2 20 км - переменная облачность 749 761 +0.2 40% +5° 1 км - - - -
18:00 +22.4° С,С-В 3 5 20 км - переменная облачность 749 760 -0.5 29% +3.6° 1 км - - - -
15:00 +22° С 4 8 20 км - переменная облачность 749 761 -0.5 29% +3.2° 1 км - - - -
12:00 +20.3° С-В 4 8 20 км - переменная облачность 750 762 -0.3 31% +2.5° 1 км - - - -
09:00 +19° С 4 9 20 км - незначительная облачность 750 762 -0.5 36% +3.8° более 2.5 км - - - -
06:00 +14.4° З,С-З 1 3 20 км - незначительная облачность 751 763 -0.2 51% +4.5° более 2.5 км - Сухая (без трещин) - -
03:00 +10.8° С-З 1 2 20 км - переменная облачность 751 763 -0.1 55% +2.1° 1 км - - - -
00:00 +12.4° З,С-З 1 3 20 км - незначительная облачность 751 763 -0.2 48% +1.7° более 2.5 км - - - -
Суббота, 16 Июня
Время местн. Темп Ветер Видим Явления Облачность нижн/средн/верх Атм. давл. Влжн Точка росы ВНГО R Сост. почвы Tg s
Напр Скр Прв ур.ст ур.м изм
21:00 +14.8° З 1 9 20 км - незначительная облачность 751 763 +0.2 43% +2.5° более 2.5 км - - - -
18:00 +19.1° С 5 9 20 км - переменная облачность 751 763 -0.2 31% +1.7° 1 км 0 - - -
15:00 +19° С 5 10 20 км - переменная облачность 751 763 -0.3 32% +1.9° 1 км - - - -
12:00 +17.4° С 5 9 20 км - незначительная облачность 751 763 -0.1 34% +1.5° более 2.5 км - - - -
09:00 +15° С 5 9 20 км - незначительная облачность 751 763 0 37% +0.4° более 2.5 км - - - -
06:00 +9.2° З 2 3 20 км - ясно 751 763 +0.2 64% +2.7° более 2.5 км - Влажная (без луж) - -